createdAt,value
2018-11-21T00:00:41.172Z,94894.00
2018-11-21T00:06:10.473Z,94888.00
2018-11-21T00:11:39.774Z,94889.00
2018-11-21T00:17:09.170Z,94896.00
2018-11-21T00:22:38.493Z,94898.00
2018-11-21T00:28:07.760Z,94902.00
2018-11-21T00:33:37.133Z,94898.00
2018-11-21T00:39:09.114Z,94905.00
2018-11-21T00:44:39.460Z,94898.00
2018-11-21T00:50:08.841Z,94906.00
2018-11-21T00:55:38.183Z,94912.00
2018-11-21T01:01:07.676Z,94925.00
2018-11-21T01:06:37.040Z,94929.00
2018-11-21T01:12:06.493Z,94939.00
2018-11-21T01:17:35.764Z,94931.00
2018-11-21T01:23:05.250Z,94939.00
2018-11-21T01:28:34.532Z,94938.00
2018-11-21T01:34:03.878Z,94934.00
2018-11-21T01:39:33.149Z,94935.00
2018-11-21T01:45:02.413Z,94927.00
2018-11-21T01:50:31.665Z,94916.00
2018-11-21T01:56:01.084Z,94914.00
2018-11-21T02:01:30.330Z,94917.00
2018-11-21T02:06:59.618Z,94912.00
2018-11-21T02:12:28.979Z,94915.00
2018-11-21T02:17:58.202Z,94919.00
2018-11-21T02:23:27.575Z,94918.00
2018-11-21T02:28:56.933Z,94911.00
2018-11-21T02:34:26.115Z,94913.00
2018-11-21T02:39:55.382Z,94919.00
2018-11-21T02:45:24.962Z,94909.00
2018-11-21T02:50:54.199Z,94924.00
2018-11-21T02:57:00.706Z,94940.00
2018-11-21T03:02:29.986Z,94940.00
2018-11-21T03:08:00.373Z,94940.00
2018-11-21T03:13:29.652Z,94942.00
2018-11-21T03:18:58.934Z,94938.00
2018-11-21T03:24:28.358Z,94955.00
2018-11-21T03:29:57.603Z,94957.00
2018-11-21T03:35:27.058Z,94977.00
2018-11-21T03:40:56.399Z,94984.00
2018-11-21T03:46:25.590Z,94995.00
2018-11-21T03:51:54.818Z,94983.00
2018-11-21T03:57:24.132Z,94994.00
2018-11-21T04:02:53.430Z,94992.00
2018-11-21T04:08:22.658Z,95000.00
2018-11-21T04:13:51.941Z,95002.00
2018-11-21T04:19:21.234Z,95022.00
2018-11-21T04:24:50.579Z,95021.00
2018-11-21T04:30:19.887Z,95018.00
2018-11-21T04:35:49.196Z,95021.00
2018-11-21T04:41:18.558Z,95022.00
2018-11-21T04:46:48.272Z,95026.00
2018-11-21T04:52:18.047Z,95029.00
2018-11-21T04:57:47.300Z,95017.00
2018-11-21T05:03:16.561Z,95031.00
2018-11-21T05:08:45.832Z,95034.00
2018-11-21T05:14:15.151Z,95029.00
2018-11-21T05:19:44.353Z,95029.00
2018-11-21T05:25:14.764Z,95027.00
2018-11-21T05:30:42.856Z,95048.00
2018-11-21T05:36:12.183Z,95052.00
2018-11-21T05:41:41.541Z,95058.00
2018-11-21T05:47:10.721Z,95073.00
2018-11-21T05:52:40.053Z,95091.00
2018-11-21T05:58:09.320Z,95099.00
2018-11-21T06:03:38.686Z,95094.00
2018-11-21T06:09:12.351Z,95090.00
2018-11-21T06:14:41.632Z,95089.00
2018-11-21T06:20:13.024Z,95105.00
2018-11-21T06:25:42.370Z,95104.00
2018-11-21T06:31:11.647Z,95109.00
2018-11-21T06:36:40.890Z,95107.00
2018-11-21T06:42:10.207Z,95115.00
2018-11-21T06:47:39.424Z,95123.00
2018-11-21T06:53:08.702Z,95131.00
2018-11-21T06:58:37.967Z,95151.00
2018-11-21T07:04:07.289Z,95149.00
2018-11-21T07:09:36.550Z,95141.00
2018-11-21T07:15:06.806Z,95150.00
2018-11-21T07:20:36.111Z,95151.00
2018-11-21T07:26:06.208Z,95152.00
2018-11-21T07:31:35.600Z,95147.00
2018-11-21T07:37:07.123Z,95153.00
2018-11-21T07:42:36.345Z,95166.00
2018-11-21T07:48:07.025Z,95165.00
2018-11-21T07:53:36.375Z,95153.00
2018-11-21T07:59:05.751Z,95155.00
2018-11-21T08:04:59.925Z,95161.00
2018-11-21T08:10:54.263Z,95156.00
2018-11-21T08:16:53.613Z,95167.00
2018-11-21T08:22:40.503Z,95190.00
2018-11-21T08:28:21.260Z,95195.00
2018-11-21T08:33:50.498Z,95202.00
2018-11-21T08:39:19.801Z,95195.00
2018-11-21T08:44:49.137Z,95204.00
2018-11-21T08:50:18.458Z,95206.00
2018-11-21T08:55:47.965Z,95219.00
2018-11-21T09:01:17.201Z,95215.00
2018-11-21T09:06:46.424Z,95224.00
2018-11-21T09:12:15.786Z,95220.00
2018-11-21T09:17:45.558Z,95219.00
2018-11-21T09:23:16.893Z,95233.00
2018-11-21T09:28:46.123Z,95236.00
2018-11-21T09:34:15.346Z,95231.00
2018-11-21T09:39:44.698Z,95216.00
2018-11-21T09:45:15.291Z,95210.00
2018-11-21T09:50:44.857Z,95214.00
2018-11-21T09:56:14.180Z,95232.00
2018-11-21T10:02:38.688Z,95231.00
2018-11-21T10:08:56.372Z,95227.00
2018-11-21T10:14:25.630Z,95219.00
2018-11-21T10:19:54.863Z,95219.00
2018-11-21T10:25:24.100Z,95219.00
2018-11-21T10:30:53.335Z,95227.00
2018-11-21T10:36:22.655Z,95227.00
2018-11-21T10:41:51.851Z,95228.00
2018-11-21T10:47:21.112Z,95222.00
2018-11-21T10:52:50.444Z,95224.00
2018-11-21T10:58:19.695Z,95218.00
2018-11-21T11:04:00.634Z,95222.00
2018-11-21T11:10:02.528Z,95230.00
2018-11-21T11:15:50.773Z,95236.00
2018-11-21T11:21:50.932Z,95236.00
2018-11-21T11:27:37.781Z,95246.00
2018-11-21T11:33:25.089Z,95251.00
2018-11-21T11:39:11.939Z,95245.00
2018-11-21T11:45:09.009Z,95247.00
2018-11-21T11:51:09.110Z,95239.00
2018-11-21T11:56:58.910Z,95239.00
2018-11-21T12:02:46.067Z,95241.00
2018-11-21T12:08:52.658Z,95246.00
2018-11-21T12:14:46.676Z,95246.00
2018-11-21T12:20:47.032Z,95241.00
2018-11-21T12:26:34.348Z,95245.00
2018-11-21T12:32:21.505Z,95242.00
2018-11-21T12:38:09.912Z,95252.00
2018-11-21T12:44:04.392Z,95241.00
2018-11-21T12:49:55.476Z,95252.00
2018-11-21T12:56:03.731Z,95246.00
2018-11-21T13:01:52.034Z,95246.00
2018-11-21T13:07:38.830Z,95258.00
2018-11-21T13:13:33.300Z,95248.00
2018-11-21T13:19:15.961Z,95261.00
2018-11-21T13:24:59.348Z,95258.00
2018-11-21T13:30:40.756Z,95263.00
2018-11-21T13:36:27.979Z,95271.00
2018-11-21T13:42:14.275Z,95265.00
2018-11-21T13:48:17.887Z,95277.00
2018-11-21T13:54:14.174Z,95294.00
2018-11-21T13:59:43.433Z,95289.00
2018-11-21T14:05:12.994Z,95290.00
2018-11-21T14:10:42.237Z,95303.00
2018-11-21T14:16:11.480Z,95297.00
2018-11-21T14:21:40.732Z,95301.00
2018-11-21T14:27:10.287Z,95309.00
2018-11-21T14:32:39.982Z,95311.00
2018-11-21T14:38:09.317Z,95316.00
2018-11-21T14:43:38.553Z,95311.00
2018-11-21T14:49:08.326Z,95319.00
2018-11-21T14:54:37.657Z,95331.00
2018-11-21T15:00:14.903Z,95332.00
2018-11-21T15:05:50.043Z,95364.00
2018-11-21T15:11:20.373Z,95372.00
2018-11-21T15:16:49.704Z,95371.00
2018-11-21T15:22:19.011Z,95372.00
2018-11-21T15:27:48.231Z,95381.00
2018-11-21T15:33:17.443Z,95399.00
2018-11-21T15:38:46.765Z,95393.00
2018-11-21T15:44:16.035Z,95404.00
2018-11-21T15:49:45.446Z,95392.00
2018-11-21T15:55:15.788Z,95409.00
2018-11-21T16:00:45.045Z,95412.00
2018-11-21T16:06:15.521Z,95427.00
2018-11-21T16:11:44.871Z,95426.00
2018-11-21T16:17:15.257Z,95431.00
2018-11-21T16:22:46.591Z,95443.00
2018-11-21T16:28:15.868Z,95454.00
2018-11-21T16:33:46.688Z,95466.00
2018-11-21T16:39:16.086Z,95470.00
2018-11-21T16:44:45.333Z,95461.00
2018-11-21T16:50:16.047Z,95459.00
2018-11-21T16:55:46.329Z,95469.00
